sensor_id;sensor_type;location;lat;lon;timestamp;noise_LAeq;noise_LA_min;noise_LA_max;noise_LA01;noise_LA95
66747;Laerm;53658;50.742;10.864;2023-05-10T00:01:09;39.81;37.52;41.53;;
66747;Laerm;53658;50.742;10.864;2023-05-10T00:03:35;39.83;37.70;41.68;;
66747;Laerm;53658;50.742;10.864;2023-05-10T00:06:01;39.85;37.12;41.61;;
66747;Laerm;53658;50.742;10.864;2023-05-10T00:08:27;39.98;37.88;42.03;;
66747;Laerm;53658;50.742;10.864;2023-05-10T00:10:53;39.99;37.52;41.89;;
66747;Laerm;53658;50.742;10.864;2023-05-10T00:13:19;40.01;37.88;41.82;;
66747;Laerm;53658;50.742;10.864;2023-05-10T00:15:45;40.00;37.52;41.89;;
66747;Laerm;53658;50.742;10.864;2023-05-10T00:18:11;40.01;37.70;41.75;;
66747;Laerm;53658;50.742;10.864;2023-05-10T00:20:37;39.97;37.88;42.03;;
66747;Laerm;53658;50.742;10.864;2023-05-10T00:23:03;40.01;37.88;41.68;;
66747;Laerm;53658;50.742;10.864;2023-05-10T00:25:28;40.02;37.70;41.82;;
66747;Laerm;53658;50.742;10.864;2023-05-10T00:27:54;39.96;37.70;41.82;;
66747;Laerm;53658;50.742;10.864;2023-05-10T00:30:23;39.91;37.32;41.75;;
66747;Laerm;53658;50.742;10.864;2023-05-10T00:32:49;39.85;37.12;41.68;;
66747;Laerm;53658;50.742;10.864;2023-05-10T00:35:17;39.97;37.32;42.09;;
66747;Laerm;53658;50.742;10.864;2023-05-10T00:37:42;39.98;37.70;41.75;;
66747;Laerm;53658;50.742;10.864;2023-05-10T00:40:09;40.31;37.12;48.57;;
66747;Laerm;53658;50.742;10.864;2023-05-10T00:42:35;39.62;36.45;41.82;;
66747;Laerm;53658;50.742;10.864;2023-05-10T00:45:01;39.50;36.20;41.68;;
66747;Laerm;53658;50.742;10.864;2023-05-10T00:47:28;39.40;36.69;41.46;;
66747;Laerm;53658;50.742;10.864;2023-05-10T00:49:56;39.33;36.20;41.48;;
66747;Laerm;53658;50.742;10.864;2023-05-10T00:52:22;39.22;36.20;41.75;;
66747;Laerm;53658;50.742;10.864;2023-05-10T00:54:52;39.23;35.66;41.38;;
66747;Laerm;53658;50.742;10.864;2023-05-10T00:57:18;39.21;35.04;41.68;;
66747;Laerm;53658;50.742;10.864;2023-05-10T00:59:45;39.17;36.20;41.46;;
66747;Laerm;53658;50.742;10.864;2023-05-10T01:02:11;39.15;35.04;41.53;;
66747;Laerm;53658;50.742;10.864;2023-05-10T01:04:38;39.13;36.20;41.30;;
66747;Laerm;53658;50.742;10.864;2023-05-10T01:07:05;39.11;35.66;41.75;;
66747;Laerm;53658;50.742;10.864;2023-05-10T01:09:30;39.11;35.36;41.30;;
66747;Laerm;53658;50.742;10.864;2023-05-10T01:11:58;39.13;36.20;41.53;;
66747;Laerm;53658;50.742;10.864;2023-05-10T01:14:25;39.17;35.94;41.61;;
66747;Laerm;53658;50.742;10.864;2023-05-10T01:16:52;39.15;35.94;41.53;;
66747;Laerm;53658;50.742;10.864;2023-05-10T01:19:29;39.15;35.94;41.75;;
66747;Laerm;53658;50.742;10.864;2023-05-10T01:46:28;39.58;36.45;41.75;;
66747;Laerm;53658;50.742;10.864;2023-05-10T01:49:01;39.73;36.91;41.68;;
66747;Laerm;53658;50.742;10.864;2023-05-10T01:51:38;39.60;36.45;41.75;;
66747;Laerm;53658;50.742;10.864;2023-05-10T01:54:08;39.51;36.69;41.61;;
66747;Laerm;53658;50.742;10.864;2023-05-10T01:56:39;39.48;36.91;41.46;;
66747;Laerm;53658;50.742;10.864;2023-05-10T01:59:13;39.42;36.45;41.30;;
66747;Laerm;53658;50.742;10.864;2023-05-10T02:01:43;39.40;35.94;41.53;;
66747;Laerm;53658;50.742;10.864;2023-05-10T02:04:15;39.40;36.45;41.46;;
66747;Laerm;53658;50.742;10.864;2023-05-10T02:06:43;39.38;36.45;41.30;;
66747;Laerm;53658;50.742;10.864;2023-05-10T02:09:12;39.39;36.45;41.61;;
66747;Laerm;53658;50.742;10.864;2023-05-10T02:11:42;39.39;36.20;41.30;;
66747;Laerm;53658;50.742;10.864;2023-05-10T02:14:11;39.43;36.45;42.03;;
66747;Laerm;53658;50.742;10.864;2023-05-10T02:16:39;39.44;36.69;41.75;;
66747;Laerm;53658;50.742;10.864;2023-05-10T02:19:07;39.47;36.69;41.30;;
66747;Laerm;53658;50.742;10.864;2023-05-10T02:21:35;39.51;36.69;41.68;;
66747;Laerm;53658;50.742;10.864;2023-05-10T02:24:04;39.57;37.12;41.53;;
66747;Laerm;53658;50.742;10.864;2023-05-10T02:26:33;39.65;36.20;41.61;;
66747;Laerm;53658;50.742;10.864;2023-05-10T02:29:02;39.72;36.91;41.55;;
66747;Laerm;53658;50.742;10.864;2023-05-10T02:31:32;39.74;36.91;41.61;;
66747;Laerm;53658;50.742;10.864;2023-05-10T02:33:59;39.78;37.12;41.61;;
66747;Laerm;53658;50.742;10.864;2023-05-10T02:36:28;39.81;37.32;41.82;;
66747;Laerm;53658;50.742;10.864;2023-05-10T02:38:55;39.89;37.12;41.82;;
66747;Laerm;53658;50.742;10.864;2023-05-10T02:41:22;39.90;37.12;41.61;;
66747;Laerm;53658;50.742;10.864;2023-05-10T02:43:57;39.93;37.70;41.89;;
66747;Laerm;53658;50.742;10.864;2023-05-10T02:46:25;39.93;37.52;42.03;;
66747;Laerm;53658;50.742;10.864;2023-05-10T02:48:51;39.95;36.91;41.75;;
66747;Laerm;53658;50.742;10.864;2023-05-10T02:51:19;39.96;37.52;41.61;;
66747;Laerm;53658;50.742;10.864;2023-05-10T02:53:49;39.97;37.32;41.75;;
66747;Laerm;53658;50.742;10.864;2023-05-10T02:56:34;39.96;37.52;41.75;;
66747;Laerm;53658;50.742;10.864;2023-05-10T02:59:01;39.96;37.70;41.82;;
66747;Laerm;53658;50.742;10.864;2023-05-10T03:01:27;39.90;37.70;41.68;;
66747;Laerm;53658;50.742;10.864;2023-05-10T03:03:53;39.84;37.12;41.82;;
66747;Laerm;53658;50.742;10.864;2023-05-10T03:06:19;39.85;37.70;41.46;;
66747;Laerm;53658;50.742;10.864;2023-05-10T03:08:45;39.83;37.70;41.82;;
66747;Laerm;53658;50.742;10.864;2023-05-10T03:16:42;39.75;37.32;41.68;;
66747;Laerm;53658;50.742;10.864;2023-05-10T03:22:09;39.67;37.52;42.16;;
66747;Laerm;53658;50.742;10.864;2023-05-10T03:24:39;39.54;36.91;41.30;;
66747;Laerm;53658;50.742;10.864;2023-05-10T03:27:07;39.51;37.32;41.30;;
66747;Laerm;53658;50.742;10.864;2023-05-10T03:29:34;39.67;36.98;41.75;;
66747;Laerm;53658;50.742;10.864;2023-05-10T03:32:02;39.61;36.69;42.76;;
66747;Laerm;53658;50.742;10.864;2023-05-10T03:34:30;39.68;37.32;41.38;;
66747;Laerm;53658;50.742;10.864;2023-05-10T03:36:57;39.99;37.70;42.29;;
66747;Laerm;53658;50.742;10.864;2023-05-10T03:39:24;39.96;37.52;42.03;;
66747;Laerm;53658;50.742;10.864;2023-05-10T03:41:54;40.06;37.70;42.09;;
66747;Laerm;53658;50.742;10.864;2023-05-10T03:44:20;40.84;38.37;42.71;;
66747;Laerm;53658;50.742;10.864;2023-05-10T03:46:46;40.37;38.21;42.09;;
66747;Laerm;53658;50.742;10.864;2023-05-10T03:49:12;40.77;38.05;43.09;;
66747;Laerm;53658;50.742;10.864;2023-05-10T03:51:40;42.99;38.81;74.34;;
66747;Laerm;53658;50.742;10.864;2023-05-10T03:54:06;41.40;39.46;43.14;;
66747;Laerm;53658;50.742;10.864;2023-05-10T03:56:32;41.21;38.95;43.24;;
66747;Laerm;53658;50.742;10.864;2023-05-10T03:58:59;40.99;38.67;42.71;;
66747;Laerm;53658;50.742;10.864;2023-05-10T04:01:25;40.98;38.67;43.63;;
66747;Laerm;53658;50.742;10.864;2023-05-10T04:03:51;40.80;38.21;42.65;;
66747;Laerm;53658;50.742;10.864;2023-05-10T04:06:17;40.87;38.67;42.65;;
66747;Laerm;53658;50.742;10.864;2023-05-10T04:08:43;40.47;38.21;45.01;;
66747;Laerm;53658;50.742;10.864;2023-05-10T04:11:11;40.06;37.70;42.03;;
66747;Laerm;53658;50.742;10.864;2023-05-10T04:13:37;39.99;37.88;41.61;;
66747;Laerm;53658;50.742;10.864;2023-05-10T04:16:04;40.04;37.32;41.75;;
66747;Laerm;53658;50.742;10.864;2023-05-10T04:18:30;39.96;37.52;41.89;;
66747;Laerm;53658;50.742;10.864;2023-05-10T04:20:57;39.95;37.52;41.82;;
66747;Laerm;53658;50.742;10.864;2023-05-10T04:23:23;40.03;37.52;41.75;;
66747;Laerm;53658;50.742;10.864;2023-05-10T04:25:50;39.86;37.32;41.75;;
66747;Laerm;53658;50.742;10.864;2023-05-10T04:28:16;39.87;37.32;41.75;;
66747;Laerm;53658;50.742;10.864;2023-05-10T04:30:41;39.76;37.32;41.68;;
66747;Laerm;53658;50.742;10.864;2023-05-10T04:33:07;39.73;37.52;41.61;;
66747;Laerm;53658;50.742;10.864;2023-05-10T04:35:34;39.71;37.12;41.68;;
66747;Laerm;53658;50.742;10.864;2023-05-10T04:38:00;39.75;37.32;41.61;;
66747;Laerm;53658;50.742;10.864;2023-05-10T04:40:27;39.76;36.69;41.96;;
66747;Laerm;53658;50.742;10.864;2023-05-10T04:42:53;39.76;37.12;41.68;;
66747;Laerm;53658;50.742;10.864;2023-05-10T04:45:18;39.74;36.98;41.46;;
66747;Laerm;53658;50.742;10.864;2023-05-10T04:47:44;39.74;36.91;41.41;;
66747;Laerm;53658;50.742;10.864;2023-05-10T04:50:10;39.73;37.12;41.68;;
66747;Laerm;53658;50.742;10.864;2023-05-10T04:52:36;39.77;37.12;41.68;;
66747;Laerm;53658;50.742;10.864;2023-05-10T04:55:02;39.74;37.32;41.38;;
66747;Laerm;53658;50.742;10.864;2023-05-10T04:57:28;39.70;37.32;41.89;;
66747;Laerm;53658;50.742;10.864;2023-05-10T04:59:54;39.69;36.98;41.38;;
66747;Laerm;53658;50.742;10.864;2023-05-10T05:02:20;39.71;37.32;41.38;;
66747;Laerm;53658;50.742;10.864;2023-05-10T05:04:47;39.75;36.91;41.53;;
66747;Laerm;53658;50.742;10.864;2023-05-10T05:07:13;39.68;37.52;41.61;;
66747;Laerm;53658;50.742;10.864;2023-05-10T05:09:38;39.72;36.91;41.53;;
66747;Laerm;53658;50.742;10.864;2023-05-10T05:12:04;39.73;36.20;44.01;;
66747;Laerm;53658;50.742;10.864;2023-05-10T05:14:30;39.69;37.12;41.38;;
66747;Laerm;53658;50.742;10.864;2023-05-10T05:16:56;39.73;37.32;41.61;;
66747;Laerm;53658;50.742;10.864;2023-05-10T05:19:22;39.84;37.12;41.61;;
66747;Laerm;53658;50.742;10.864;2023-05-10T05:21:48;39.77;36.69;41.53;;
66747;Laerm;53658;50.742;10.864;2023-05-10T05:24:14;39.76;37.52;41.75;;
66747;Laerm;53658;50.742;10.864;2023-05-10T05:26:40;39.76;37.70;41.53;;
66747;Laerm;53658;50.742;10.864;2023-05-10T05:29:06;39.74;37.52;41.75;;
66747;Laerm;53658;50.742;10.864;2023-05-10T05:31:32;39.73;37.12;42.41;;
66747;Laerm;53658;50.742;10.864;2023-05-10T05:33:57;39.73;36.20;41.46;;
66747;Laerm;53658;50.742;10.864;2023-05-10T05:36:23;39.73;37.52;42.22;;
66747;Laerm;53658;50.742;10.864;2023-05-10T05:38:49;39.75;37.52;41.96;;
66747;Laerm;53658;50.742;10.864;2023-05-10T05:41:15;39.72;37.32;41.82;;
66747;Laerm;53658;50.742;10.864;2023-05-10T05:43:41;39.74;37.12;41.68;;
66747;Laerm;53658;50.742;10.864;2023-05-10T05:46:07;39.71;37.32;41.61;;
66747;Laerm;53658;50.742;10.864;2023-05-10T05:48:33;39.78;36.91;42.53;;
66747;Laerm;53658;50.742;10.864;2023-05-10T05:50:59;39.70;37.32;41.53;;
66747;Laerm;53658;50.742;10.864;2023-05-10T05:53:25;39.72;37.32;41.75;;
66747;Laerm;53658;50.742;10.864;2023-05-10T05:55:55;39.83;37.32;41.82;;
66747;Laerm;53658;50.742;10.864;2023-05-10T05:58:25;39.85;37.52;41.89;;
66747;Laerm;53658;50.742;10.864;2023-05-10T06:00:51;40.07;37.70;42.16;;
66747;Laerm;53658;50.742;10.864;2023-05-10T06:03:20;39.90;37.70;41.96;;
66747;Laerm;53658;50.742;10.864;2023-05-10T06:05:46;39.82;37.52;41.68;;
66747;Laerm;53658;50.742;10.864;2023-05-10T06:08:12;39.80;37.12;41.75;;
66747;Laerm;53658;50.742;10.864;2023-05-10T06:10:38;39.78;37.32;41.82;;
66747;Laerm;53658;50.742;10.864;2023-05-10T06:13:04;39.77;36.91;42.82;;
66747;Laerm;53658;50.742;10.864;2023-05-10T06:15:30;39.75;37.12;41.75;;
66747;Laerm;53658;50.742;10.864;2023-05-10T06:17:55;39.77;37.32;41.61;;
66747;Laerm;53658;50.742;10.864;2023-05-10T06:20:21;39.79;37.32;41.53;;
66747;Laerm;53658;50.742;10.864;2023-05-10T06:22:47;39.78;36.69;41.55;;
66747;Laerm;53658;50.742;10.864;2023-05-10T06:25:13;39.80;37.52;41.75;;
66747;Laerm;53658;50.742;10.864;2023-05-10T06:27:40;39.82;37.32;41.68;;
66747;Laerm;53658;50.742;10.864;2023-05-10T06:30:06;39.79;37.52;41.53;;
66747;Laerm;53658;50.742;10.864;2023-05-10T06:32:33;39.73;37.12;41.46;;
66747;Laerm;53658;50.742;10.864;2023-05-10T06:34:59;39.73;37.52;41.46;;
66747;Laerm;53658;50.742;10.864;2023-05-10T06:37:25;39.73;36.91;41.46;;
66747;Laerm;53658;50.742;10.864;2023-05-10T06:39:50;39.73;37.12;41.30;;
66747;Laerm;53658;50.742;10.864;2023-05-10T06:42:16;39.72;37.52;41.46;;
66747;Laerm;53658;50.742;10.864;2023-05-10T06:44:45;39.71;37.70;41.38;;
66747;Laerm;53658;50.742;10.864;2023-05-10T06:47:11;39.73;37.70;41.61;;
66747;Laerm;53658;50.742;10.864;2023-05-10T06:49:37;39.81;37.70;42.47;;
66747;Laerm;53658;50.742;10.864;2023-05-10T06:52:03;39.78;37.52;41.46;;
66747;Laerm;53658;50.742;10.864;2023-05-10T06:54:29;39.78;37.52;41.88;;
66747;Laerm;53658;50.742;10.864;2023-05-10T06:56:55;39.80;37.70;41.46;;
66747;Laerm;53658;50.742;10.864;2023-05-10T06:59:21;39.80;37.88;41.61;;
66747;Laerm;53658;50.742;10.864;2023-05-10T07:01:47;39.83;37.32;41.48;;
66747;Laerm;53658;50.742;10.864;2023-05-10T07:04:13;39.87;37.88;41.75;;
66747;Laerm;53658;50.742;10.864;2023-05-10T07:06:39;39.90;37.88;41.89;;
66747;Laerm;53658;50.742;10.864;2023-05-10T07:09:05;39.88;37.88;42.65;;
66747;Laerm;53658;50.742;10.864;2023-05-10T07:11:31;39.86;37.70;41.33;;
66747;Laerm;53658;50.742;10.864;2023-05-10T07:13:56;39.90;37.88;41.75;;
66747;Laerm;53658;50.742;10.864;2023-05-10T07:16:22;39.95;38.05;41.61;;
66747;Laerm;53658;50.742;10.864;2023-05-10T07:18:48;40.08;37.32;43.39;;
66747;Laerm;53658;50.742;10.864;2023-05-10T07:21:15;40.02;37.70;42.06;;
66747;Laerm;53658;50.742;10.864;2023-05-10T07:23:41;40.00;37.70;41.88;;
66747;Laerm;53658;50.742;10.864;2023-05-10T07:26:08;40.06;38.05;42.03;;
66747;Laerm;53658;50.742;10.864;2023-05-10T07:28:35;40.16;38.05;42.29;;
66747;Laerm;53658;50.742;10.864;2023-05-10T07:31:03;40.17;38.05;42.09;;
66747;Laerm;53658;50.742;10.864;2023-05-10T07:33:29;40.16;38.05;42.09;;
66747;Laerm;53658;50.742;10.864;2023-05-10T07:35:55;40.15;37.52;42.22;;
66747;Laerm;53658;50.742;10.864;2023-05-10T07:38:21;40.06;37.88;41.82;;
66747;Laerm;53658;50.742;10.864;2023-05-10T07:40:47;40.09;37.88;41.89;;
66747;Laerm;53658;50.742;10.864;2023-05-10T07:43:13;40.10;37.52;41.89;;
66747;Laerm;53658;50.742;10.864;2023-05-10T07:45:39;40.12;37.70;41.75;;
66747;Laerm;53658;50.742;10.864;2023-05-10T07:48:05;40.11;37.88;41.61;;
66747;Laerm;53658;50.742;10.864;2023-05-10T07:50:31;40.16;37.52;43.90;;
66747;Laerm;53658;50.742;10.864;2023-05-10T07:52:57;40.08;37.88;42.65;;
66747;Laerm;53658;50.742;10.864;2023-05-10T07:55:22;40.04;37.87;42.03;;
66747;Laerm;53658;50.742;10.864;2023-05-10T07:57:48;40.05;37.52;43.94;;
66747;Laerm;53658;50.742;10.864;2023-05-10T08:00:18;39.92;37.32;41.82;;
66747;Laerm;53658;50.742;10.864;2023-05-10T08:02:44;39.90;37.52;42.41;;
66747;Laerm;53658;50.742;10.864;2023-05-10T08:05:10;39.89;36.69;41.75;;
66747;Laerm;53658;50.742;10.864;2023-05-10T08:07:36;40.01;37.12;41.68;;
66747;Laerm;53658;50.742;10.864;2023-05-10T08:10:03;40.02;37.52;42.03;;
66747;Laerm;53658;50.742;10.864;2023-05-10T08:12:30;40.05;37.70;41.68;;
66747;Laerm;53658;50.742;10.864;2023-05-10T08:14:56;40.09;37.88;42.16;;
66747;Laerm;53658;50.742;10.864;2023-05-10T08:17:22;40.14;37.70;41.96;;
66747;Laerm;53658;50.742;10.864;2023-05-10T08:19:48;40.13;37.88;41.96;;
66747;Laerm;53658;50.742;10.864;2023-05-10T08:22:14;40.06;37.87;42.22;;
66747;Laerm;53658;50.742;10.864;2023-05-10T08:24:40;40.01;37.87;44.83;;
66747;Laerm;53658;50.742;10.864;2023-05-10T08:27:08;40.05;36.91;42.09;;
66747;Laerm;53658;50.742;10.864;2023-05-10T08:29:34;40.05;37.88;41.82;;
66747;Laerm;53658;50.742;10.864;2023-05-10T08:32:00;39.98;37.12;41.89;;
66747;Laerm;53658;50.742;10.864;2023-05-10T08:34:26;39.99;37.70;41.82;;
66747;Laerm;53658;50.742;10.864;2023-05-10T08:36:52;40.11;37.52;47.77;;
66747;Laerm;53658;50.742;10.864;2023-05-10T08:39:18;39.98;37.12;41.75;;
66747;Laerm;53658;50.742;10.864;2023-05-10T08:41:46;39.96;37.32;41.82;;
66747;Laerm;53658;50.742;10.864;2023-05-10T08:44:15;39.88;37.12;41.75;;
66747;Laerm;53658;50.742;10.864;2023-05-10T08:46:46;39.83;37.32;41.75;;
66747;Laerm;53658;50.742;10.864;2023-05-10T08:49:17;39.90;36.69;45.36;;
66747;Laerm;53658;50.742;10.864;2023-05-10T08:51:52;40.03;35.94;45.83;;
66747;Laerm;53658;50.742;10.864;2023-05-10T08:54:21;40.14;36.91;47.52;;
66747;Laerm;53658;50.742;10.864;2023-05-10T08:56:48;39.79;36.56;41.82;;
66747;Laerm;53658;50.742;10.864;2023-05-10T08:59:14;39.90;37.32;41.89;;
66747;Laerm;53658;50.742;10.864;2023-05-10T09:01:42;39.96;37.52;41.82;;
66747;Laerm;53658;50.742;10.864;2023-05-10T09:04:10;39.95;37.52;42.09;;
66747;Laerm;53658;50.742;10.864;2023-05-10T09:06:36;39.84;37.32;42.16;;
66747;Laerm;53658;50.742;10.864;2023-05-10T09:09:02;39.82;37.32;41.82;;
66747;Laerm;53658;50.742;10.864;2023-05-10T09:11:29;39.78;37.12;42.47;;
66747;Laerm;53658;50.742;10.864;2023-05-10T09:13:55;39.72;36.91;41.82;;
66747;Laerm;53658;50.742;10.864;2023-05-10T09:16:22;39.67;36.45;42.29;;
66747;Laerm;53658;50.742;10.864;2023-05-10T09:18:49;39.63;36.69;41.53;;
66747;Laerm;53658;50.742;10.864;2023-05-10T09:21:15;39.53;36.45;41.82;;
66747;Laerm;53658;50.742;10.864;2023-05-10T09:23:44;39.47;36.20;41.75;;
66747;Laerm;53658;50.742;10.864;2023-05-10T09:26:12;39.33;35.36;41.68;;
66747;Laerm;53658;50.742;10.864;2023-05-10T09:28:59;39.32;36.20;41.22;;
66747;Laerm;53658;50.742;10.864;2023-05-10T09:31:44;39.28;36.45;41.96;;
66747;Laerm;53658;50.742;10.864;2023-05-10T09:34:22;39.28;36.45;41.46;;
66747;Laerm;53658;50.742;10.864;2023-05-10T09:37:01;39.34;36.20;42.09;;
66747;Laerm;53658;50.742;10.864;2023-05-10T09:39:36;39.42;36.20;42.03;;
66747;Laerm;53658;50.742;10.864;2023-05-10T09:42:07;39.55;36.69;41.46;;
66747;Laerm;53658;50.742;10.864;2023-05-10T09:44:35;39.53;36.91;41.88;;
66747;Laerm;53658;50.742;10.864;2023-05-10T09:47:01;39.60;36.91;41.68;;
66747;Laerm;53658;50.742;10.864;2023-05-10T09:49:28;39.59;36.91;41.68;;
66747;Laerm;53658;50.742;10.864;2023-05-10T09:52:07;39.58;37.12;42.82;;
66747;Laerm;53658;50.742;10.864;2023-05-10T09:54:34;39.50;36.45;42.93;;
66747;Laerm;53658;50.742;10.864;2023-05-10T09:57:01;39.27;35.94;43.29;;
66747;Laerm;53658;50.742;10.864;2023-05-10T09:59:28;38.95;35.04;42.88;;
66747;Laerm;53658;50.742;10.864;2023-05-10T10:01:59;38.68;32.93;41.41;;
66747;Laerm;53658;50.742;10.864;2023-05-10T10:04:26;38.81;35.04;44.03;;
66747;Laerm;53658;50.742;10.864;2023-05-10T10:07:05;38.73;34.31;41.46;;
66747;Laerm;53658;50.742;10.864;2023-05-10T10:09:32;38.67;35.04;42.59;;
66747;Laerm;53658;50.742;10.864;2023-05-10T10:11:59;38.63;35.04;41.14;;
66747;Laerm;53658;50.742;10.864;2023-05-10T10:14:26;38.78;35.04;41.38;;
66747;Laerm;53658;50.742;10.864;2023-05-10T10:16:52;38.95;35.94;41.61;;
66747;Laerm;53658;50.742;10.864;2023-05-10T10:19:19;38.90;35.04;41.14;;
66747;Laerm;53658;50.742;10.864;2023-05-10T10:21:51;38.97;35.36;41.14;;
66747;Laerm;53658;50.742;10.864;2023-05-10T10:24:17;39.32;35.94;44.59;;
66747;Laerm;53658;50.742;10.864;2023-05-10T10:26:45;39.13;35.94;45.07;;
66747;Laerm;53658;50.742;10.864;2023-05-10T10:32:08;39.06;35.94;41.46;;
66747;Laerm;53658;50.742;10.864;2023-05-10T10:34:39;39.29;35.66;45.17;;
66747;Laerm;53658;50.742;10.864;2023-05-10T10:37:06;39.34;36.20;42.59;;
66747;Laerm;53658;50.742;10.864;2023-05-10T10:39:32;39.51;36.45;43.72;;
66747;Laerm;53658;50.742;10.864;2023-05-10T10:41:59;39.58;36.45;41.75;;
66747;Laerm;53658;50.742;10.864;2023-05-10T10:44:34;39.65;37.12;41.89;;
66747;Laerm;53658;50.742;10.864;2023-05-10T10:50:05;39.70;37.12;41.68;;
66747;Laerm;53658;50.742;10.864;2023-05-10T10:52:38;40.40;37.52;43.34;;
66747;Laerm;53658;50.742;10.864;2023-05-10T11:02:49;39.88;37.12;42.93;;
66747;Laerm;53658;50.742;10.864;2023-05-10T11:05:38;40.38;37.32;46.33;;
66747;Laerm;53658;50.742;10.864;2023-05-10T11:08:14;40.16;37.52;49.49;;
66747;Laerm;53658;50.742;10.864;2023-05-10T11:13:44;39.83;37.12;42.22;;
66747;Laerm;53658;50.742;10.864;2023-05-10T11:18:40;39.52;36.69;41.53;;
66747;Laerm;53658;50.742;10.864;2023-05-10T11:21:09;39.51;36.69;41.89;;
66747;Laerm;53658;50.742;10.864;2023-05-10T11:26:11;39.38;36.20;41.68;;
66747;Laerm;53658;50.742;10.864;2023-05-10T11:28:47;39.30;35.36;41.46;;
66747;Laerm;53658;50.742;10.864;2023-05-10T11:31:16;39.60;36.45;41.82;;
66747;Laerm;53658;50.742;10.864;2023-05-10T11:33:52;39.56;36.20;41.75;;
66747;Laerm;53658;50.742;10.864;2023-05-10T11:36:33;39.42;36.45;41.89;;
66747;Laerm;53658;50.742;10.864;2023-05-10T11:38:59;39.26;35.94;41.46;;
66747;Laerm;53658;50.742;10.864;2023-05-10T11:41:29;39.31;35.66;41.68;;
66747;Laerm;53658;50.742;10.864;2023-05-10T11:43:56;39.44;35.94;42.41;;
66747;Laerm;53658;50.742;10.864;2023-05-10T11:46:24;39.40;36.77;41.89;;
66747;Laerm;53658;50.742;10.864;2023-05-10T11:48:53;39.47;36.91;41.38;;
66747;Laerm;53658;50.742;10.864;2023-05-10T11:51:21;39.52;36.45;41.68;;
66747;Laerm;53658;50.742;10.864;2023-05-10T11:53:49;39.60;36.20;41.82;;
66747;Laerm;53658;50.742;10.864;2023-05-10T11:56:16;39.66;36.91;41.46;;
66747;Laerm;53658;50.742;10.864;2023-05-10T11:58:42;39.73;36.91;41.68;;
66747;Laerm;53658;50.742;10.864;2023-05-10T12:01:09;39.78;37.32;41.75;;
66747;Laerm;53658;50.742;10.864;2023-05-10T12:03:36;39.81;37.32;41.96;;
66747;Laerm;53658;50.742;10.864;2023-05-10T12:06:03;39.85;37.12;41.82;;
66747;Laerm;53658;50.742;10.864;2023-05-10T12:08:30;39.79;37.12;41.68;;
66747;Laerm;53658;50.742;10.864;2023-05-10T12:11:08;39.71;37.12;41.75;;
66747;Laerm;53658;50.742;10.864;2023-05-10T12:13:40;39.57;36.20;41.75;;
66747;Laerm;53658;50.742;10.864;2023-05-10T12:16:28;39.51;36.91;41.61;;
66747;Laerm;53658;50.742;10.864;2023-05-10T12:18:57;39.52;36.45;41.75;;
66747;Laerm;53658;50.742;10.864;2023-05-10T12:21:25;39.63;36.69;41.89;;
66747;Laerm;53658;50.742;10.864;2023-05-10T12:23:53;39.80;37.12;41.61;;
66747;Laerm;53658;50.742;10.864;2023-05-10T12:26:22;39.84;36.91;41.68;;
66747;Laerm;53658;50.742;10.864;2023-05-10T12:28:48;39.88;37.12;42.03;;
66747;Laerm;53658;50.742;10.864;2023-05-10T12:31:14;39.94;37.32;41.75;;
66747;Laerm;53658;50.742;10.864;2023-05-10T12:33:43;39.93;37.70;41.68;;
66747;Laerm;53658;50.742;10.864;2023-05-10T12:36:13;39.97;37.52;41.94;;
66747;Laerm;53658;50.742;10.864;2023-05-10T12:38:44;39.97;37.70;41.89;;
66747;Laerm;53658;50.742;10.864;2023-05-10T12:41:16;39.99;37.70;41.61;;
66747;Laerm;53658;50.742;10.864;2023-05-10T12:43:43;39.92;37.70;41.81;;
66747;Laerm;53658;50.742;10.864;2023-05-10T12:46:11;39.83;37.32;41.68;;
66747;Laerm;53658;50.742;10.864;2023-05-10T12:48:39;39.73;37.12;41.61;;
66747;Laerm;53658;50.742;10.864;2023-05-10T12:51:07;39.60;37.32;41.68;;
66747;Laerm;53658;50.742;10.864;2023-05-10T12:53:35;39.70;36.69;42.22;;
66747;Laerm;53658;50.742;10.864;2023-05-10T12:56:02;39.86;36.98;41.82;;
66747;Laerm;53658;50.742;10.864;2023-05-10T12:58:28;39.83;37.12;41.68;;
66747;Laerm;53658;50.742;10.864;2023-05-10T13:00:54;39.75;36.45;41.68;;
66747;Laerm;53658;50.742;10.864;2023-05-10T13:03:22;39.74;37.12;41.75;;
66747;Laerm;53658;50.742;10.864;2023-05-10T13:05:50;39.70;36.69;41.68;;
66747;Laerm;53658;50.742;10.864;2023-05-10T13:08:16;39.82;36.45;41.75;;
66747;Laerm;53658;50.742;10.864;2023-05-10T13:10:42;39.93;37.12;41.82;;
66747;Laerm;53658;50.742;10.864;2023-05-10T13:13:08;39.97;37.52;41.89;;
66747;Laerm;53658;50.742;10.864;2023-05-10T13:15:34;40.01;37.52;41.75;;
66747;Laerm;53658;50.742;10.864;2023-05-10T13:18:00;39.99;37.32;41.82;;
66747;Laerm;53658;50.742;10.864;2023-05-10T13:20:26;40.02;37.52;41.61;;
66747;Laerm;53658;50.742;10.864;2023-05-10T13:22:53;40.02;37.88;41.75;;
66747;Laerm;53658;50.742;10.864;2023-05-10T13:25:19;40.01;37.52;41.53;;
66747;Laerm;53658;50.742;10.864;2023-05-10T13:27:45;39.99;37.88;41.88;;
66747;Laerm;53658;50.742;10.864;2023-05-10T13:30:11;39.95;37.32;41.75;;
66747;Laerm;53658;50.742;10.864;2023-05-10T13:32:40;39.92;37.70;41.68;;
66747;Laerm;53658;50.742;10.864;2023-05-10T13:35:07;39.82;37.12;41.46;;
66747;Laerm;53658;50.742;10.864;2023-05-10T13:37:33;39.62;37.53;41.38;;
66747;Laerm;53658;50.742;10.864;2023-05-10T13:40:03;39.60;37.52;41.41;;
66747;Laerm;53658;50.742;10.864;2023-05-10T13:42:30;39.49;37.12;41.38;;
66747;Laerm;53658;50.742;10.864;2023-05-10T13:44:57;39.49;36.69;41.14;;
66747;Laerm;53658;50.742;10.864;2023-05-10T13:47:23;39.50;37.12;41.38;;
66747;Laerm;53658;50.742;10.864;2023-05-10T13:49:49;39.51;36.91;41.22;;
66747;Laerm;53658;50.742;10.864;2023-05-10T13:52:15;39.51;37.12;41.53;;
66747;Laerm;53658;50.742;10.864;2023-05-10T13:54:41;39.49;37.12;41.22;;
66747;Laerm;53658;50.742;10.864;2023-05-10T13:57:07;39.47;36.69;41.38;;
66747;Laerm;53658;50.742;10.864;2023-05-10T13:59:32;39.73;37.12;41.89;;
66747;Laerm;53658;50.742;10.864;2023-05-10T14:01:59;39.57;36.69;41.53;;
66747;Laerm;53658;50.742;10.864;2023-05-10T14:04:25;39.59;37.32;41.38;;
66747;Laerm;53658;50.742;10.864;2023-05-10T14:06:51;39.60;37.12;41.22;;
66747;Laerm;53658;50.742;10.864;2023-05-10T14:09:18;39.80;37.52;41.68;;
66747;Laerm;53658;50.742;10.864;2023-05-10T14:11:45;40.17;37.70;44.23;;
66747;Laerm;53658;50.742;10.864;2023-05-10T14:14:12;40.19;37.70;44.19;;
66747;Laerm;53658;50.742;10.864;2023-05-10T14:16:44;40.31;37.52;45.57;;
66747;Laerm;53658;50.742;10.864;2023-05-10T14:19:10;39.96;37.32;47.36;;
66747;Laerm;53658;50.742;10.864;2023-05-10T14:21:36;39.78;37.32;41.96;;
66747;Laerm;53658;50.742;10.864;2023-05-10T14:24:02;39.79;37.32;41.46;;
66747;Laerm;53658;50.742;10.864;2023-05-10T14:26:28;39.73;36.91;41.30;;
66747;Laerm;53658;50.742;10.864;2023-05-10T14:28:54;39.72;37.12;41.48;;